createdAt,value
2018-10-19T00:04:00.394Z,5.63
2018-10-19T00:09:05.603Z,5.47
2018-10-19T00:14:09.186Z,5.90
2018-10-19T00:19:12.723Z,5.27
2018-10-19T00:24:16.260Z,5.83
2018-10-19T00:29:19.932Z,6.43
2018-10-19T00:34:23.511Z,5.90
2018-10-19T00:39:28.208Z,6.60
2018-10-19T00:44:31.841Z,6.57
2018-10-19T00:49:35.417Z,7.07
2018-10-19T00:54:39.967Z,7.83
2018-10-19T00:59:43.831Z,7.53
2018-10-19T01:04:47.417Z,7.77
2018-10-19T01:09:51.062Z,7.93
2018-10-19T01:14:54.683Z,7.77
2018-10-19T01:19:58.211Z,7.00
2018-10-19T01:25:01.744Z,7.13
2018-10-19T01:30:06.012Z,7.57
2018-10-19T01:35:12.059Z,7.07
2018-10-19T01:40:15.561Z,7.10
2018-10-19T01:45:19.210Z,7.90
2018-10-19T01:50:22.886Z,7.10
2018-10-19T01:55:26.582Z,7.77
2018-10-19T02:00:30.319Z,7.13
2018-10-19T02:05:33.893Z,8.37
2018-10-19T02:10:37.549Z,6.53
2018-10-19T02:15:41.178Z,6.63
2018-10-19T02:20:44.760Z,7.50
2018-10-19T02:25:48.335Z,7.40
2018-10-19T02:30:52.078Z,8.03
2018-10-19T02:35:55.686Z,7.13
2018-10-19T02:40:59.506Z,7.23
2018-10-19T02:46:08.371Z,6.23
2018-10-19T02:51:13.126Z,6.03
2018-10-19T02:56:16.731Z,6.40
2018-10-19T03:01:20.317Z,6.77
2018-10-19T03:06:25.036Z,5.87
2018-10-19T03:11:28.742Z,6.80
2018-10-19T03:16:32.367Z,5.13
2018-10-19T03:21:36.137Z,5.60
2018-10-19T03:26:39.734Z,5.37
2018-10-19T03:31:43.303Z,4.30
2018-10-19T03:36:48.091Z,5.00
2018-10-19T03:41:51.714Z,5.00
2018-10-19T03:46:55.362Z,5.47
2018-10-19T03:51:58.986Z,5.03
2018-10-19T03:57:02.731Z,6.03
2018-10-19T04:02:06.447Z,6.27
2018-10-19T04:07:10.025Z,6.50
2018-10-19T04:12:13.851Z,5.60
2018-10-19T04:17:17.530Z,6.30
2018-10-19T04:22:22.246Z,5.30
2018-10-19T04:27:26.486Z,5.27
2018-10-19T04:32:30.259Z,5.50
2018-10-19T04:37:33.815Z,5.50
2018-10-19T04:42:38.139Z,5.03
2018-10-19T04:47:43.954Z,5.03
2018-10-19T04:52:47.499Z,5.00
2018-10-19T04:57:51.202Z,5.17
2018-10-19T05:02:55.012Z,5.50
2018-10-19T05:07:58.636Z,4.73
2018-10-19T05:13:02.257Z,5.47
2018-10-19T05:18:05.910Z,5.20
2018-10-19T05:23:09.603Z,5.90
2018-10-19T05:28:13.187Z,5.40
2018-10-19T05:33:16.768Z,6.93
2018-10-19T05:38:20.330Z,6.57
2018-10-19T05:43:23.942Z,6.80
2018-10-19T05:48:28.707Z,7.80
2018-10-19T05:53:32.387Z,9.73
2018-10-19T05:58:36.571Z,7.10
2018-10-19T06:03:40.239Z,6.40
2018-10-19T06:08:43.811Z,6.63
2018-10-19T06:13:49.676Z,7.90
2018-10-19T06:18:53.138Z,7.30
2018-10-19T06:23:56.862Z,7.60
2018-10-19T06:29:00.420Z,8.20
2018-10-19T06:34:06.042Z,8.00
2018-10-19T06:39:11.466Z,7.93
2018-10-19T06:44:15.392Z,7.80
2018-10-19T06:49:18.978Z,7.53
2018-10-19T06:54:22.607Z,7.57
2018-10-19T06:59:26.379Z,7.83
2018-10-19T07:04:30.263Z,8.43
2018-10-19T07:09:33.883Z,8.30
2018-10-19T07:14:37.618Z,8.63
2018-10-19T07:19:41.192Z,8.23
2018-10-19T07:24:44.823Z,8.70
2018-10-19T07:29:49.532Z,8.77
2018-10-19T07:34:53.191Z,12.80
2018-10-19T07:39:57.105Z,11.70
2018-10-19T07:45:00.687Z,10.90
2018-10-19T07:50:05.091Z,13.87
2018-10-19T07:55:10.303Z,9.60
2018-10-19T08:00:14.177Z,9.70
2018-10-19T08:05:17.903Z,9.27
2018-10-19T08:10:21.414Z,10.57
2018-10-19T08:15:25.092Z,10.17
2018-10-19T08:20:28.821Z,11.50
2018-10-19T08:25:32.400Z,12.57
2018-10-19T08:30:37.162Z,13.60
2018-10-19T08:35:40.773Z,14.50
2018-10-19T08:40:44.524Z,14.93
2018-10-19T08:45:48.352Z,14.93
2018-10-19T08:50:51.910Z,15.83
2018-10-19T08:55:56.610Z,15.30
2018-10-19T09:01:00.242Z,14.90
2018-10-19T09:06:03.889Z,16.03
2018-10-19T09:11:07.440Z,15.57
2018-10-19T09:16:11.003Z,14.80
2018-10-19T09:21:14.626Z,16.30
2018-10-19T09:26:18.233Z,14.87
2018-10-19T09:31:21.795Z,16.90
2018-10-19T09:36:25.601Z,16.07
2018-10-19T09:41:29.168Z,17.20
2018-10-19T09:46:33.099Z,17.23
2018-10-19T09:51:37.684Z,16.57
2018-10-19T09:56:41.446Z,17.90
2018-10-19T10:01:45.585Z,18.70
2018-10-19T10:06:49.154Z,18.90
2018-10-19T10:11:52.778Z,17.13
2018-10-19T10:16:56.662Z,16.33
2018-10-19T10:22:00.222Z,17.63
2018-10-19T10:27:03.791Z,17.33
2018-10-19T10:32:07.886Z,16.73
2018-10-19T10:37:11.588Z,13.43
2018-10-19T10:42:15.361Z,13.83
2018-10-19T10:47:19.305Z,18.57
2018-10-19T10:52:22.933Z,17.73
2018-10-19T10:57:26.522Z,18.10
2018-10-19T11:02:35.914Z,18.27
2018-10-19T11:07:39.682Z,17.60
2018-10-19T11:12:43.219Z,18.57
2018-10-19T11:17:48.035Z,16.27
2018-10-19T11:22:51.578Z,16.67
2018-10-19T11:27:55.148Z,17.07
2018-10-19T11:32:58.786Z,15.30
2018-10-19T11:38:02.393Z,17.50
2018-10-19T11:43:06.302Z,18.07
2018-10-19T11:48:09.928Z,17.43
2018-10-19T11:53:14.815Z,17.33
2018-10-19T11:58:18.492Z,17.17
2018-10-19T12:03:22.106Z,17.67
2018-10-19T12:08:25.661Z,16.80
2018-10-19T12:13:29.571Z,16.43
2018-10-19T12:18:33.146Z,16.80
2018-10-19T12:23:36.771Z,15.57
2018-10-19T12:28:40.409Z,17.60
2018-10-19T12:33:45.169Z,15.87
2018-10-19T12:38:48.771Z,14.43
2018-10-19T12:43:52.313Z,15.80
2018-10-19T12:48:57.289Z,17.03
2018-10-19T12:54:00.903Z,17.67
2018-10-19T12:59:04.865Z,17.73
2018-10-19T13:04:08.554Z,18.13
2018-10-19T13:09:13.866Z,17.03
2018-10-19T13:14:17.471Z,16.50
2018-10-19T13:19:21.225Z,16.77
2018-10-19T13:24:25.233Z,15.60
2018-10-19T13:29:28.942Z,15.97
2018-10-19T13:34:32.526Z,16.73
2018-10-19T13:39:36.214Z,17.17
2018-10-19T13:44:40.781Z,15.40
2018-10-19T13:49:45.707Z,17.30
2018-10-19T13:54:50.647Z,16.57
2018-10-19T13:59:54.328Z,17.07
2018-10-19T14:04:58.666Z,18.27
2018-10-19T14:10:02.322Z,16.73
2018-10-19T14:15:07.381Z,17.43
2018-10-19T14:20:12.363Z,19.53
2018-10-19T14:25:16.400Z,18.30
2018-10-19T14:30:19.966Z,16.50
2018-10-19T14:35:24.959Z,16.93
2018-10-19T14:40:28.827Z,16.40
2018-10-19T14:45:34.074Z,18.13
2018-10-19T14:50:37.883Z,16.77
2018-10-19T14:55:41.587Z,16.30
2018-10-19T15:00:45.182Z,17.00
2018-10-19T15:05:48.896Z,16.47
2018-10-19T15:10:52.773Z,16.43
2018-10-19T15:15:56.261Z,16.07
2018-10-19T15:20:59.910Z,15.57
2018-10-19T15:26:03.454Z,16.83
2018-10-19T15:31:07.116Z,18.00
2018-10-19T15:36:11.785Z,17.53
2018-10-19T15:41:15.727Z,16.57
2018-10-19T15:46:20.301Z,14.90
2018-10-19T15:51:23.926Z,15.30
2018-10-19T15:56:27.527Z,15.57
2018-10-19T16:01:31.118Z,16.27
2018-10-19T16:06:34.803Z,21.50
2018-10-19T16:11:39.643Z,26.43
2018-10-19T16:16:43.307Z,17.67
2018-10-19T16:21:47.932Z,17.80
2018-10-19T16:26:52.730Z,21.63
2018-10-19T16:31:56.298Z,18.27
2018-10-19T16:36:59.943Z,17.10
2018-10-19T16:42:03.600Z,17.13
2018-10-19T16:47:08.314Z,17.37
2018-10-19T16:52:12.031Z,17.50
2018-10-19T16:57:15.609Z,17.63
2018-10-19T17:02:19.174Z,16.47
2018-10-19T17:07:23.134Z,15.77
2018-10-19T17:12:26.767Z,18.33
2018-10-19T17:17:30.511Z,17.87
2018-10-19T17:22:34.271Z,15.37
2018-10-19T17:27:38.182Z,16.87
2018-10-19T17:32:42.050Z,16.73
2018-10-19T17:37:45.595Z,16.97
2018-10-19T17:42:55.935Z,17.00
2018-10-19T17:47:59.617Z,17.30
2018-10-19T17:53:03.336Z,17.33
2018-10-19T17:58:07.098Z,17.30
2018-10-19T18:03:15.269Z,19.10
2018-10-19T18:08:18.954Z,18.17
2018-10-19T18:13:22.611Z,18.17
2018-10-19T18:18:26.367Z,17.70
2018-10-19T18:23:30.090Z,17.50
2018-10-19T18:28:33.846Z,16.60
2018-10-19T18:33:37.518Z,16.57
2018-10-19T18:38:41.407Z,16.53
2018-10-19T18:43:46.351Z,17.57
2018-10-19T18:48:50.038Z,13.97
2018-10-19T18:53:53.847Z,14.03
2018-10-19T18:58:59.649Z,16.27
2018-10-19T19:04:04.348Z,19.63
2018-10-19T19:09:10.714Z,15.60
2018-10-19T19:14:15.506Z,17.47
2018-10-19T19:19:21.843Z,16.77
2018-10-19T19:24:31.963Z,14.90
2018-10-19T19:29:37.836Z,13.93
2018-10-19T19:34:42.718Z,14.57
2018-10-19T19:39:47.485Z,14.93
2018-10-19T19:44:51.338Z,15.73
2018-10-19T19:50:02.802Z,16.47
2018-10-19T19:55:07.136Z,18.43
2018-10-19T20:00:12.430Z,18.60
2018-10-19T20:05:18.241Z,19.10
2018-10-19T20:10:22.234Z,18.27
2018-10-19T20:15:25.919Z,18.03
2018-10-19T20:20:30.136Z,17.10
2018-10-19T20:25:33.885Z,17.53
2018-10-19T20:30:37.586Z,16.50
2018-10-19T20:35:41.703Z,16.23
2018-10-19T20:40:45.294Z,17.30
2018-10-19T20:45:49.952Z,19.77
2018-10-19T20:50:53.607Z,19.13
2018-10-19T20:55:58.320Z,19.27
2018-10-19T21:01:02.042Z,21.67
2018-10-19T21:06:05.816Z,19.00
2018-10-19T21:11:09.658Z,19.27
2018-10-19T21:16:15.290Z,19.33
2018-10-19T21:21:18.939Z,16.10
2018-10-19T21:26:22.848Z,15.17
2018-10-19T21:31:26.434Z,16.40
2018-10-19T21:36:31.187Z,18.37
2018-10-19T21:41:35.890Z,17.47
2018-10-19T21:46:39.553Z,16.87
2018-10-19T21:51:44.219Z,17.13
2018-10-19T21:56:47.847Z,17.73
2018-10-19T22:01:51.481Z,18.93
2018-10-19T22:06:55.264Z,19.00
2018-10-19T22:11:58.969Z,20.00
2018-10-19T22:17:06.896Z,20.40
2018-10-19T22:22:13.254Z,20.93
2018-10-19T22:27:17.447Z,20.93
2018-10-19T22:32:22.258Z,21.20
2018-10-19T22:37:25.854Z,20.70
2018-10-19T22:42:29.445Z,20.07
2018-10-19T22:47:33.136Z,21.57
2018-10-19T22:52:36.832Z,22.30
2018-10-19T22:57:40.451Z,23.40
2018-10-19T23:02:44.111Z,23.20
2018-10-19T23:07:49.919Z,21.80
2018-10-19T23:12:53.542Z,25.20
2018-10-19T23:17:57.195Z,25.33
2018-10-19T23:23:00.867Z,25.23
2018-10-19T23:28:04.491Z,26.43
2018-10-19T23:33:08.062Z,27.67
2018-10-19T23:38:11.587Z,28.10
2018-10-19T23:43:15.290Z,22.13
2018-10-19T23:48:18.818Z,27.23
2018-10-19T23:53:22.359Z,31.30
2018-10-19T23:58:25.918Z,29.50
